Time;durP1;ratioP1;P1;durP2;ratioP2;P2;SDS_P1;SDS_P2;PMS_P1;PMS_P2;Temp;Humidity;BMP_temperature;BMP_pressure;BME280_temperature;BME280_humidity;BME280_pressure;Samples;Min_cycle;Max_cycle;Signal;HPM_P1;HPM_P2
2022/12/16 00:01:37;;;;;;;43.95;22.58;;;9.90;64.70;;;;;;5053558;28;20055;-79
2022/12/16 00:04:03;;;;;;;47.70;24.05;;;10.00;64.20;;;;;;5054315;28;20102;-80
2022/12/16 00:06:31;;;;;;;48.92;23.80;;;10.00;63.70;;;;;;5053269;28;20021;-80
2022/12/16 00:08:58;;;;;;;51.30;24.00;;;10.10;63.60;;;;;;5053156;28;20033;-80
2022/12/16 00:11:24;;;;;;;41.70;21.83;;;10.10;63.80;;;;;;5053085;28;20059;-80
2022/12/16 00:13:49;;;;;;;44.88;21.55;;;10.00;64.10;;;;;;5049413;28;20391;-80
2022/12/16 00:16:16;;;;;;;46.85;23.25;;;9.90;64.70;;;;;;5053138;28;20411;-79
2022/12/16 00:18:44;;;;;;;43.22;21.85;;;9.80;64.80;;;;;;5052897;28;20029;-80
2022/12/16 00:21:10;;;;;;;43.83;22.35;;;9.90;64.80;;;;;;5053950;28;20104;-80
2022/12/16 00:23:38;;;;;;;40.65;22.40;;;9.90;64.90;;;;;;5054388;28;20104;-79
2022/12/16 00:26:04;;;;;;;41.85;21.50;;;10.10;64.00;;;;;;5053952;28;20025;-80
2022/12/16 00:28:30;;;;;;;47.15;21.98;;;10.20;63.80;;;;;;5052713;28;20155;-80
2022/12/16 00:30:56;;;;;;;46.05;22.10;;;10.30;63.30;;;;;;5052799;28;20119;-80
2022/12/16 00:33:23;;;;;;;46.55;23.23;;;10.10;63.70;;;;;;5052270;28;20027;-79
2022/12/16 00:35:50;;;;;;;50.10;21.90;;;10.00;64.80;;;;;;5054033;28;20487;-80
2022/12/16 00:38:15;;;;;;;45.15;24.27;;;9.70;64.80;;;;;;5054030;28;20430;-80
2022/12/16 00:40:42;;;;;;;54.28;27.02;;;9.70;65.20;;;;;;4004223;28;10000760;-79
2022/12/16 00:43:08;;;;;;;42.13;23.98;;;9.50;65.10;;;;;;5053049;28;20045;-80
2022/12/16 00:45:33;;;;;;;45.15;23.90;;;9.50;65.60;;;;;;5051974;28;20056;-80
2022/12/16 00:47:59;;;;;;;46.03;24.15;;;9.60;65.30;;;;;;5051517;28;20427;-79
2022/12/16 00:50:25;;;;;;;46.13;24.65;;;9.70;65.20;;;;;;5048484;28;20040;-80
2022/12/16 00:52:51;;;;;;;44.45;23.00;;;10.00;64.30;;;;;;5036784;28;20021;-79
2022/12/16 00:55:17;;;;;;;43.25;21.70;;;10.20;63.60;;;;;;5034682;28;20049;-79
2022/12/16 00:57:42;;;;;;;41.28;21.30;;;10.10;63.80;;;;;;5065480;28;20022;-79
2022/12/16 01:00:12;;;;;;;39.08;20.50;;;10.00;63.50;;;;;;5051778;28;20029;-79
2022/12/16 01:02:43;;;;;;;36.60;20.05;;;9.70;63.90;;;;;;5052762;28;20033;-80
2022/12/16 01:05:11;;;;;;;28.55;17.05;;;9.40;65.10;;;;;;5053054;28;20045;-80
2022/12/16 01:07:37;;;;;;;28.88;16.70;;;9.10;65.50;;;;;;5052700;28;20529;-78
2022/12/16 01:10:04;;;;;;;30.98;17.27;;;9.00;66.40;;;;;;5045351;28;20029;-80
2022/12/16 01:12:29;;;;;;;31.42;17.95;;;8.80;66.40;;;;;;5043059;28;20023;-79
2022/12/16 01:14:55;;;;;;;28.48;17.10;;;8.60;67.20;;;;;;5051414;28;20044;-80
2022/12/16 01:17:21;;;;;;;29.35;16.88;;;8.40;67.80;;;;;;5046388;28;20112;-80
2022/12/16 01:19:46;;;;;;;27.45;16.60;;;8.20;68.60;;;;;;5051316;28;20029;-80
2022/12/16 01:22:13;;;;;;;32.60;17.48;;;8.30;68.70;;;;;;5051661;28;20521;-80
2022/12/16 01:24:38;;;;;;;29.08;17.90;;;8.20;68.60;;;;;;5051148;28;20036;-80
2022/12/16 01:27:04;;;;;;;28.95;17.20;;;8.10;69.30;;;;;;5041420;28;20025;-80
2022/12/16 01:29:30;;;;;;;24.80;16.40;;;8.30;69.10;;;;;;5051946;28;20399;-80
2022/12/16 01:31:55;;;;;;;28.40;17.17;;;8.50;68.50;;;;;;5044119;28;20087;-80
2022/12/16 01:34:21;;;;;;;28.40;18.05;;;8.70;68.10;;;;;;5031806;28;20045;-79
2022/12/16 01:36:46;;;;;;;32.10;18.88;;;8.60;67.90;;;;;;5045702;28;20025;-79
2022/12/16 01:39:12;;;;;;;30.60;18.42;;;8.60;68.20;;;;;;5035441;28;20075;-80
2022/12/16 01:41:38;;;;;;;31.02;18.20;;;8.80;67.70;;;;;;5047125;28;20013;-80
2022/12/16 01:44:22;;;;;;;31.85;19.33;;;8.80;67.40;;;;;;5040106;28;20029;-80
2022/12/16 01:47:03;;;;;;;26.80;17.20;;;8.80;67.10;;;;;;5048316;28;20404;-80
2022/12/16 01:49:43;;;;;;;26.75;16.60;;;8.70;67.90;;;;;;5041576;28;20028;-80
2022/12/16 01:52:16;;;;;;;22.85;15.43;;;8.70;67.90;;;;;;5051096;28;20028;-80
2022/12/16 01:54:46;;;;;;;21.63;14.95;;;8.80;67.60;;;;;;5050783;28;20036;-80
2022/12/16 01:57:18;;;;;;;24.30;14.73;;;8.90;67.30;;;;;;5051109;28;20053;-80
2022/12/16 01:59:46;;;;;;;22.88;14.15;;;8.80;67.50;;;;;;5034876;28;20083;-80
2022/12/16 02:02:13;;;;;;;19.13;13.23;;;8.80;67.20;;;;;;5065044;28;20435;-79
2022/12/16 02:07:24;;;;;;;17.73;13.07;;;8.80;67.70;;;;;;5034474;28;20040;-79
2022/12/16 02:09:50;;;;;;;17.88;12.75;;;8.90;67.90;;;;;;5067131;28;20439;-79
2022/12/16 02:12:33;;;;;;;18.75;12.98;;;9.00;67.00;;;;;;5051173;28;20419;-79
2022/12/16 02:15:02;;;;;;;17.35;12.32;;;9.20;66.40;;;;;;5044751;28;20473;-80
2022/12/16 02:17:54;;;;;;;16.48;13.00;;;9.40;65.50;;;;;;5078759;28;20412;-80
2022/12/16 02:20:50;;;;;;;16.13;12.60;;;9.50;65.60;;;;;;5037192;28;20372;-80
2022/12/16 02:23:42;;;;;;;16.17;12.70;;;9.40;65.30;;;;;;5050733;28;20083;-80
2022/12/16 02:26:32;;;;;;;16.40;11.93;;;9.30;65.90;;;;;;5031516;28;20036;-79
2022/12/16 02:29:16;;;;;;;16.63;12.30;;;9.10;66.60;;;;;;5028719;28;20025;-80
2022/12/16 02:31:54;;;;;;;17.48;12.82;;;9.00;66.50;;;;;;5030547;28;20045;-80
2022/12/16 02:34:48;;;;;;;18.13;13.23;;;8.60;67.80;;;;;;5036547;28;20060;-80
2022/12/16 02:37:30;;;;;;;16.45;12.73;;;8.50;68.10;;;;;;5049215;28;20041;-79
2022/12/16 02:40:02;;;;;;;16.70;12.27;;;8.60;67.80;;;;;;5066094;28;20119;-80
2022/12/16 02:42:38;;;;;;;17.60;12.00;;;8.50;68.10;;;;;;5050068;28;20060;-79
2022/12/16 02:45:12;;;;;;;16.23;11.10;;;8.40;68.40;;;;;;5029936;28;20612;-81
2022/12/16 02:47:38;;;;;;;16.80;11.80;;;8.20;68.50;;;;;;5022737;28;20030;-81
2022/12/16 02:50:12;;;;;;;16.20;11.38;;;8.20;68.60;;;;;;5020120;28;20042;-80
2022/12/16 02:52:38;;;;;;;16.23;11.35;;;8.30;68.90;;;;;;5033926;28;20021;-80
2022/12/16 02:55:07;;;;;;;15.43;10.63;;;8.50;67.90;;;;;;5033115;28;20053;-79
2022/12/16 02:57:41;;;;;;;17.73;11.53;;;8.50;68.00;;;;;;5052005;28;20037;-80
2022/12/16 03:00:13;;;;;;;16.98;11.45;;;8.20;68.80;;;;;;5036285;28;20540;-81
2022/12/16 03:02:48;;;;;;;14.77;10.32;;;8.00;69.10;;;;;;5052726;28;20112;-79
2022/12/16 03:05:33;;;;;;;16.08;11.50;;;7.90;70.10;;;;;;5047603;28;20032;-79
2022/12/16 03:08:02;;;;;;;14.88;10.25;;;8.40;69.40;;;;;;5049668;28;20025;-79
2022/12/16 03:10:36;;;;;;;15.20;10.73;;;8.60;67.30;;;;;;5054756;28;20056;-80
2022/12/16 03:13:04;;;;;;;15.15;10.15;;;8.50;67.80;;;;;;5050353;28;20067;-79
2022/12/16 03:15:33;;;;;;;14.68;10.13;;;8.40;68.20;;;;;;5053801;28;20045;-80
2022/12/16 03:18:01;;;;;;;14.13;10.50;;;8.50;68.00;;;;;;5050892;28;20021;-80
2022/12/16 03:20:37;;;;;;;15.80;10.88;;;8.50;68.40;;;;;;5034786;28;20026;-79
2022/12/16 03:23:10;;;;;;;14.30;10.00;;;8.90;67.60;;;;;;5034581;28;20392;-79
2022/12/16 03:25:40;;;;;;;15.75;10.65;;;8.90;66.60;;;;;;5035959;28;20380;-80
2022/12/16 03:28:11;;;;;;;16.13;11.05;;;9.00;66.60;;;;;;5042349;28;20032;-79
2022/12/16 03:30:44;;;;;;;15.65;10.98;;;9.10;66.80;;;;;;5044364;28;20035;-79
2022/12/16 03:33:31;;;;;;;16.98;11.93;;;9.60;65.10;;;;;;5048129;28;20040;-80
2022/12/16 03:36:04;;;;;;;18.00;11.43;;;9.80;64.50;;;;;;5079553;28;20037;-79
2022/12/16 03:38:32;;;;;;;14.85;10.32;;;10.00;64.20;;;;;;5054054;28;20025;-79
2022/12/16 03:41:00;;;;;;;14.82;10.65;;;10.00;63.60;;;;;;5034362;28;20027;-79
2022/12/16 03:43:26;;;;;;;16.98;10.93;;;10.00;63.30;;;;;;5042524;28;20057;-79
2022/12/16 03:45:56;;;;;;;14.65;10.32;;;9.80;64.10;;;;;;5045984;28;20033;-80
2022/12/16 03:48:24;;;;;;;16.80;11.02;;;9.70;64.40;;;;;;5037770;28;20449;-79
2022/12/16 03:50:50;;;;;;;15.40;10.60;;;9.60;65.30;;;;;;5053302;28;20032;-79
2022/12/16 03:53:15;;;;;;;17.60;11.98;;;9.40;65.10;;;;;;5048894;28;20032;-78
2022/12/16 03:55:41;;;;;;;18.40;12.23;;;9.50;65.90;;;;;;5037192;28;20041;-79
2022/12/16 03:58:07;;;;;;;18.60;12.32;;;9.80;64.90;;;;;;5036956;28;20022;-79
2022/12/16 04:00:33;;;;;;;16.30;11.85;;;9.90;64.30;;;;;;5033400;28;20037;-77
2022/12/16 04:02:58;;;;;;;17.15;11.60;;;9.80;65.00;;;;;;5052322;28;20025;-78
2022/12/16 04:05:24;;;;;;;16.88;11.05;;;10.10;63.70;;;;;;5061696;28;20029;-79
2022/12/16 04:07:50;;;;;;;18.40;12.20;;;10.30;63.70;;;;;;5052707;28;20021;-79
2022/12/16 04:24:17;;;;;;;17.80;11.80;;;10.30;63.20;;;;;;5034640;28;20061;-79
2022/12/16 04:24:19;;;;;;;16.13;11.30;;;9.80;64.20;;;;;;5067649;28;20117;-79
2022/12/16 04:29:33;;;;;;;16.55;11.30;;;10.10;64.40;;;;;;5063919;28;20063;-80
2022/12/16 04:31:59;;;;;;;13.95;9.82;;;10.20;64.00;;;;;;5067546;28;20115;-79
2022/12/16 04:34:25;;;;;;;14.13;10.23;;;10.20;64.00;;;;;;5044840;28;20037;-79
